createdAt,value
2022-12-04T00:01:04.437Z,0
2022-12-04T00:06:05.952Z,0
2022-12-04T00:11:07.546Z,0
2022-12-04T00:16:09.203Z,0
2022-12-04T00:21:10.699Z,0
2022-12-04T00:26:12.360Z,0
2022-12-04T00:31:14.148Z,0
2022-12-04T00:36:15.677Z,0
2022-12-04T00:41:17.365Z,0
2022-12-04T00:46:19.009Z,0
2022-12-04T00:51:20.521Z,0
2022-12-04T00:56:22.542Z,0
2022-12-04T01:01:24.216Z,0
2022-12-04T01:06:25.777Z,0
2022-12-04T01:11:27.497Z,0
2022-12-04T01:16:29.141Z,0
2022-12-04T01:21:30.853Z,0
2022-12-04T01:26:32.527Z,0
2022-12-04T01:31:34.104Z,0
2022-12-04T01:36:35.752Z,0
2022-12-04T01:41:37.432Z,0
2022-12-04T01:46:39.009Z,0
2022-12-04T01:51:40.580Z,0
2022-12-04T01:56:42.222Z,0
2022-12-04T02:01:43.779Z,0
2022-12-04T02:06:45.333Z,0
2022-12-04T02:11:48.030Z,0
2022-12-04T02:16:49.816Z,0.88715
2022-12-04T02:21:51.492Z,0
2022-12-04T02:26:53.108Z,0.88715
2022-12-04T02:31:54.638Z,0.88715
2022-12-04T02:36:56.087Z,0.88715
2022-12-04T02:41:57.722Z,1.16185
2022-12-04T02:46:59.243Z,0.8296
2022-12-04T02:52:00.853Z,1.83695
2022-12-04T02:57:03.149Z,4.59225
2022-12-04T03:02:04.818Z,12.7252
2022-12-04T03:07:06.439Z,22.57335
2022-12-04T03:12:08.164Z,36.0915
2022-12-04T03:17:10.139Z,56.7652
2022-12-04T03:22:11.822Z,84.22555
2022-12-04T03:27:14.301Z,113.45625
2022-12-04T03:32:15.850Z,146.96545
2022-12-04T03:37:17.439Z,180.2902
2022-12-04T03:42:19.008Z,211.1068
2022-12-04T03:47:20.585Z,249.31855
2022-12-04T03:52:22.121Z,276.83405
2022-12-04T03:57:23.837Z,303.1877
2022-12-04T04:02:25.544Z,324.28545
2022-12-04T04:07:33.375Z,351.80095
2022-12-04T04:12:36.922Z,370.99905
2022-12-04T04:17:39.090Z,388.61125
2022-12-04T04:22:40.814Z,403.4757
2022-12-04T04:27:42.558Z,416.62495
2022-12-04T04:32:44.173Z,428.98125
2022-12-04T04:37:45.687Z,443.79055
2022-12-04T04:42:47.387Z,483.9951
2022-12-04T04:47:48.946Z,546.20065
2022-12-04T04:52:50.542Z,581.68365
2022-12-04T04:57:52.272Z,615.0274
2022-12-04T05:02:53.789Z,637.60075
2022-12-04T05:07:55.416Z,670.4463
2022-12-04T05:12:56.989Z,708.0134
2022-12-04T05:17:58.452Z,706.64995
2022-12-04T05:22:59.947Z,708.4963
2022-12-04T05:28:01.796Z,684.2666
2022-12-04T05:33:03.328Z,642.55215
2022-12-04T05:38:04.912Z,683.0723
2022-12-04T05:43:06.490Z,676.34265
2022-12-04T05:48:07.986Z,681.52625
2022-12-04T05:53:09.717Z,718.2091
2022-12-04T05:58:11.500Z,673.6176
2022-12-04T06:03:13.338Z,649.9584
2022-12-04T06:08:15.104Z,651.5823
2022-12-04T06:13:16.731Z,653.0959
2022-12-04T06:18:18.342Z,654.4802
2022-12-04T06:23:19.859Z,664.1819
2022-12-04T06:28:21.660Z,653.76325
2022-12-04T06:33:23.261Z,631.9657
2022-12-04T06:38:25.072Z,641.85185
2022-12-04T06:43:26.849Z,632.46575
2022-12-04T06:48:28.342Z,628.59415
2022-12-04T06:53:29.801Z,611.25955
2022-12-04T06:58:31.428Z,611.89165
2022-12-04T07:03:33.043Z,612.06925
2022-12-04T07:08:34.479Z,620.5429
2022-12-04T07:13:35.928Z,622.7352
2022-12-04T07:18:37.417Z,629.4312
2022-12-04T07:23:38.960Z,634.17165
2022-12-04T07:28:40.831Z,638.91215
2022-12-04T07:33:42.277Z,644.42295
2022-12-04T07:38:43.792Z,649.1634
2022-12-04T07:43:45.298Z,654.6742
2022-12-04T07:48:46.778Z,657.3407
2022-12-04T07:53:48.340Z,664.7478
2022-12-04T07:58:50.094Z,669.31045
2022-12-04T08:03:51.552Z,675.4732
2022-12-04T08:08:53.102Z,684.0062
2022-12-04T08:13:54.604Z,685.48755
2022-12-04T08:18:56.198Z,696.0946
2022-12-04T08:23:57.910Z,697.45745
2022-12-04T08:28:59.681Z,700.3017
2022-12-04T08:34:01.238Z,708.42
2022-12-04T08:39:02.838Z,720.3306
2022-12-04T08:44:04.506Z,726.6711
2022-12-04T08:49:06.036Z,731.9451
2022-12-04T08:54:07.651Z,736.4487
2022-12-04T08:59:09.350Z,776.74415
2022-12-04T09:04:10.868Z,794.5213
2022-12-04T09:09:12.411Z,804.95055
2022-12-04T09:14:13.948Z,809.92805
2022-12-04T09:19:15.481Z,812.53545
2022-12-04T09:24:16.979Z,844.7123
2022-12-04T09:29:18.841Z,591.6495
2022-12-04T09:34:20.502Z,987.6998
2022-12-04T09:39:22.028Z,666.06625
2022-12-04T09:44:23.652Z,1068.88295
2022-12-04T09:49:25.236Z,1042.276
2022-12-04T09:54:26.753Z,1079.9634
2022-12-04T09:59:28.813Z,1075.9339
2022-12-04T10:04:30.292Z,968.5014
2022-12-04T10:09:31.961Z,690.41415
2022-12-04T10:14:33.512Z,692.20535
2022-12-04T10:19:35.003Z,1082.80735
2022-12-04T10:24:36.832Z,985.80335
2022-12-04T10:29:38.600Z,991.13685
2022-12-04T10:34:44.065Z,1037.65415
2022-12-04T10:39:47.235Z,978.27805
2022-12-04T10:44:48.718Z,901.1849
2022-12-04T10:49:50.441Z,998.90005
2022-12-04T10:54:51.957Z,701.71335
2022-12-04T10:59:54.224Z,1022.4846
2022-12-04T11:04:56.201Z,995.52315
2022-12-04T11:09:58.017Z,993.50835
2022-12-04T11:14:59.890Z,1000.73815
2022-12-04T11:20:01.366Z,1010.87105
2022-12-04T11:25:02.928Z,1015.25605
2022-12-04T11:30:04.793Z,1036.17415
2022-12-04T11:35:06.433Z,1064.5586
2022-12-04T11:40:07.966Z,1092.4686
2022-12-04T11:45:09.427Z,1098.2762
2022-12-04T11:50:11.084Z,1122.11155
2022-12-04T11:55:12.844Z,1082.3862
2022-12-04T12:00:14.952Z,1125.37465
2022-12-04T12:05:16.557Z,1162.3504
2022-12-04T12:10:18.123Z,1225.8091
2022-12-04T12:15:19.678Z,1254.87435
2022-12-04T12:20:21.299Z,1305.73715
2022-12-04T12:25:22.947Z,1344.48325
2022-12-04T12:30:24.738Z,1353.8369
2022-12-04T12:35:26.198Z,1414.8046
2022-12-04T12:40:27.682Z,1265.98355
2022-12-04T12:45:29.353Z,1404.65615
2022-12-04T12:50:31.089Z,1585.0812
2022-12-04T12:55:32.597Z,1541.0602
2022-12-04T13:00:34.519Z,1035.40525
2022-12-04T13:05:36.045Z,584.4045
2022-12-04T13:10:37.652Z,484.1888
2022-12-04T13:15:39.366Z,606.2076
2022-12-04T13:20:40.873Z,344.6718
2022-12-04T13:25:42.446Z,273.4472
2022-12-04T13:30:44.456Z,246.70565
2022-12-04T13:35:45.935Z,272.50595
2022-12-04T13:40:47.389Z,316.0116
2022-12-04T13:45:49.005Z,372.75965
2022-12-04T13:50:50.691Z,499.8689
2022-12-04T13:55:52.301Z,330.3644
2022-12-04T14:00:54.349Z,426.6135
2022-12-04T14:05:55.961Z,1945.2737
2022-12-04T14:10:57.467Z,2021.87795
2022-12-04T14:15:59.143Z,1948.2861
2022-12-04T14:21:00.614Z,1883.27395
2022-12-04T14:26:02.194Z,1809.68765
2022-12-04T14:31:03.962Z,1809.5755
2022-12-04T14:36:05.764Z,1769.6467
2022-12-04T14:41:07.510Z,1721.3092
2022-12-04T14:46:09.322Z,1499.0404
2022-12-04T14:51:10.925Z,1552.26675
2022-12-04T14:56:12.577Z,1544.48185
2022-12-04T15:01:14.494Z,1480.0249
2022-12-04T15:06:15.988Z,1397.56785
2022-12-04T15:11:17.772Z,1339.14075
2022-12-04T15:16:20.226Z,1282.18925
2022-12-04T15:21:22.046Z,1257.76955
2022-12-04T15:26:23.810Z,1209.6888
2022-12-04T15:31:25.873Z,1110.1919
2022-12-04T15:36:27.505Z,995.5548
2022-12-04T15:41:28.967Z,881.56235
2022-12-04T15:46:30.508Z,735.7759
2022-12-04T15:51:32.451Z,592.8475
2022-12-04T15:56:33.974Z,472.1977
2022-12-04T16:01:36.592Z,366.1176
2022-12-04T16:06:38.153Z,279.3649
2022-12-04T16:11:39.699Z,207.10775
2022-12-04T16:16:41.395Z,169.54065
2022-12-04T16:21:42.983Z,137.11915
2022-12-04T16:26:44.646Z,103.72025
2022-12-04T16:31:46.380Z,82.78795
2022-12-04T16:36:47.973Z,59.66125
2022-12-04T16:41:49.703Z,43.13675
2022-12-04T16:46:51.590Z,28.143
2022-12-04T16:51:53.130Z,17.55705
2022-12-04T16:56:55.369Z,5.93855
2022-12-04T17:01:57.294Z,2.42955
2022-12-04T17:06:58.980Z,0.8296
2022-12-04T17:12:00.767Z,1.16185
2022-12-04T17:17:02.476Z,0.88715
2022-12-04T17:22:03.951Z,0.88715
2022-12-04T17:27:05.529Z,0.88715
2022-12-04T17:32:07.403Z,0
2022-12-04T17:37:09.011Z,0
2022-12-04T17:42:10.667Z,0.88715
2022-12-04T17:47:12.415Z,0
2022-12-04T17:52:13.958Z,0
2022-12-04T17:57:15.567Z,0
2022-12-04T18:02:17.215Z,0
2022-12-04T18:07:18.718Z,0
2022-12-04T18:12:20.336Z,0
2022-12-04T18:17:21.864Z,0
2022-12-04T18:22:23.408Z,0
2022-12-04T18:27:25.056Z,0
2022-12-04T18:32:26.744Z,0
2022-12-04T18:37:28.220Z,0
2022-12-04T18:42:29.883Z,0
2022-12-04T18:47:31.372Z,0
2022-12-04T18:52:32.811Z,0
2022-12-04T18:57:34.416Z,0
2022-12-04T19:02:36.250Z,0
2022-12-04T19:07:37.803Z,0
2022-12-04T19:12:39.477Z,0
2022-12-04T19:17:41.095Z,0
2022-12-04T19:22:42.690Z,0
2022-12-04T19:27:44.237Z,0
2022-12-04T19:32:46.135Z,0
2022-12-04T19:37:52.502Z,0
2022-12-04T19:43:01.132Z,0
2022-12-04T19:48:04.355Z,0
2022-12-04T19:53:06.016Z,0
2022-12-04T19:58:07.802Z,0
2022-12-04T20:03:09.527Z,0
2022-12-04T20:13:11.729Z,0.88715
2022-12-04T20:18:13.197Z,0.88715
2022-12-04T20:23:14.687Z,0
2022-12-04T20:28:20.945Z,0
2022-12-04T20:33:22.666Z,0
2022-12-04T20:38:24.194Z,0
2022-12-04T20:43:25.825Z,0
2022-12-04T20:48:27.304Z,0
2022-12-04T20:53:28.861Z,0
2022-12-04T20:58:30.406Z,0
2022-12-04T21:03:32.407Z,0
2022-12-04T21:08:33.925Z,0
2022-12-04T21:13:36.359Z,0
2022-12-04T21:18:38.079Z,0
2022-12-04T21:23:39.687Z,0
2022-12-04T21:28:41.143Z,0.88715
2022-12-04T21:33:42.929Z,0
2022-12-04T21:38:44.627Z,0
2022-12-04T21:43:46.095Z,0
2022-12-04T21:48:47.695Z,0
2022-12-04T21:53:49.446Z,0
2022-12-04T21:58:51.028Z,0
2022-12-04T22:03:52.817Z,0
2022-12-04T22:08:54.304Z,0
2022-12-04T22:13:55.748Z,0
2022-12-04T22:18:57.266Z,0
2022-12-04T22:23:58.875Z,0
2022-12-04T22:29:00.423Z,0
2022-12-04T22:34:02.719Z,0
2022-12-04T22:39:10.759Z,0
2022-12-04T22:44:12.774Z,0
2022-12-04T22:49:14.443Z,0
2022-12-04T22:54:15.990Z,0
2022-12-04T22:59:17.459Z,0
2022-12-04T23:04:19.219Z,0
2022-12-04T23:09:20.924Z,0
2022-12-04T23:14:22.347Z,0
2022-12-04T23:19:23.994Z,0
2022-12-04T23:24:25.683Z,0
2022-12-04T23:29:51.985Z,0
2022-12-04T23:34:54.695Z,0
2022-12-04T23:39:56.771Z,0
2022-12-04T23:44:58.447Z,0
2022-12-04T23:50:00.216Z,0
2022-12-04T23:55:01.906Z,0.88715
